sensor_id;sensor_type;location;lat;lon;timestamp;temperature;humidity
64111;DHT22;50401;48.188;11.566;2024-03-22T00:00:38;9.84;83.25
64111;DHT22;50401;48.188;11.566;2024-03-22T00:03:04;9.81;83.09
64111;DHT22;50401;48.188;11.566;2024-03-22T00:05:29;9.85;83.11
64111;DHT22;50401;48.188;11.566;2024-03-22T00:07:55;9.75;83.34
64111;DHT22;50401;48.188;11.566;2024-03-22T00:10:20;9.73;83.31
64111;DHT22;50401;48.188;11.566;2024-03-22T00:12:46;9.68;83.51
64111;DHT22;50401;48.188;11.566;2024-03-22T00:15:12;9.58;83.83
64111;DHT22;50401;48.188;11.566;2024-03-22T00:17:37;9.61;83.86
64111;DHT22;50401;48.188;11.566;2024-03-22T00:20:03;9.48;84.20
64111;DHT22;50401;48.188;11.566;2024-03-22T00:22:28;9.30;84.82
64111;DHT22;50401;48.188;11.566;2024-03-22T00:24:54;9.22;85.40
64111;DHT22;50401;48.188;11.566;2024-03-22T00:27:19;9.36;85.08
64111;DHT22;50401;48.188;11.566;2024-03-22T00:29:45;9.39;84.89
64111;DHT22;50401;48.188;11.566;2024-03-22T00:32:10;9.41;84.68
64111;DHT22;50401;48.188;11.566;2024-03-22T00:34:36;9.51;84.53
64111;DHT22;50401;48.188;11.566;2024-03-22T00:37:01;9.51;84.26
64111;DHT22;50401;48.188;11.566;2024-03-22T00:39:27;9.58;84.17
64111;DHT22;50401;48.188;11.566;2024-03-22T00:41:52;9.68;84.28
64111;DHT22;50401;48.188;11.566;2024-03-22T00:44:18;9.59;84.27
64111;DHT22;50401;48.188;11.566;2024-03-22T00:46:43;9.55;84.09
64111;DHT22;50401;48.188;11.566;2024-03-22T00:49:09;9.55;83.99
64111;DHT22;50401;48.188;11.566;2024-03-22T00:51:34;9.27;84.52
64111;DHT22;50401;48.188;11.566;2024-03-22T00:53:59;9.44;84.57
64111;DHT22;50401;48.188;11.566;2024-03-22T00:56:25;9.34;83.98
64111;DHT22;50401;48.188;11.566;2024-03-22T00:58:50;9.39;83.99
64111;DHT22;50401;48.188;11.566;2024-03-22T01:01:17;9.46;83.67
64111;DHT22;50401;48.188;11.566;2024-03-22T01:03:42;9.43;83.52
64111;DHT22;50401;48.188;11.566;2024-03-22T01:06:08;9.29;83.81
64111;DHT22;50401;48.188;11.566;2024-03-22T01:08:33;9.16;84.22
64111;DHT22;50401;48.188;11.566;2024-03-22T01:10:59;9.27;83.93
64111;DHT22;50401;48.188;11.566;2024-03-22T01:13:24;9.27;83.80
64111;DHT22;50401;48.188;11.566;2024-03-22T01:15:50;9.27;83.56
64111;DHT22;50401;48.188;11.566;2024-03-22T01:18:15;9.26;83.52
64111;DHT22;50401;48.188;11.566;2024-03-22T01:20:41;9.32;83.47
64111;DHT22;50401;48.188;11.566;2024-03-22T01:23:07;9.37;83.30
64111;DHT22;50401;48.188;11.566;2024-03-22T01:25:33;9.39;83.27
64111;DHT22;50401;48.188;11.566;2024-03-22T01:27:58;9.40;83.08
64111;DHT22;50401;48.188;11.566;2024-03-22T01:30:24;9.37;82.77
64111;DHT22;50401;48.188;11.566;2024-03-22T01:32:54;9.44;82.52
64111;DHT22;50401;48.188;11.566;2024-03-22T01:35:19;9.47;82.11
64111;DHT22;50401;48.188;11.566;2024-03-22T01:37:45;9.55;82.03
64111;DHT22;50401;48.188;11.566;2024-03-22T01:40:10;9.55;81.80
64111;DHT22;50401;48.188;11.566;2024-03-22T01:42:36;9.55;81.53
64111;DHT22;50401;48.188;11.566;2024-03-22T01:45:02;9.65;81.31
64111;DHT22;50401;48.188;11.566;2024-03-22T01:47:28;9.70;81.01
64111;DHT22;50401;48.188;11.566;2024-03-22T01:49:55;9.71;80.87
64111;DHT22;50401;48.188;11.566;2024-03-22T01:52:22;9.67;80.93
64111;DHT22;50401;48.188;11.566;2024-03-22T01:54:48;9.71;80.81
64111;DHT22;50401;48.188;11.566;2024-03-22T01:57:14;9.73;80.91
64111;DHT22;50401;48.188;11.566;2024-03-22T01:59:39;9.77;80.58
64111;DHT22;50401;48.188;11.566;2024-03-22T02:02:05;9.75;80.15
64111;DHT22;50401;48.188;11.566;2024-03-22T02:04:31;9.73;80.15
64111;DHT22;50401;48.188;11.566;2024-03-22T02:06:57;9.75;79.99
64111;DHT22;50401;48.188;11.566;2024-03-22T02:09:22;9.64;80.15
64111;DHT22;50401;48.188;11.566;2024-03-22T02:11:48;9.46;80.77
64111;DHT22;50401;48.188;11.566;2024-03-22T02:14:13;9.48;80.95
64111;DHT22;50401;48.188;11.566;2024-03-22T02:16:42;9.55;80.92
64111;DHT22;50401;48.188;11.566;2024-03-22T02:19:08;9.57;80.92
64111;DHT22;50401;48.188;11.566;2024-03-22T02:21:34;9.40;81.25
64111;DHT22;50401;48.188;11.566;2024-03-22T02:24:00;9.27;81.64
64111;DHT22;50401;48.188;11.566;2024-03-22T02:26:25;9.22;82.01
64111;DHT22;50401;48.188;11.566;2024-03-22T02:28:51;9.24;81.94
64111;DHT22;50401;48.188;11.566;2024-03-22T02:31:17;9.23;81.64
64111;DHT22;50401;48.188;11.566;2024-03-22T02:33:42;9.13;82.14
64111;DHT22;50401;48.188;11.566;2024-03-22T02:36:08;9.19;82.07
64111;DHT22;50401;48.188;11.566;2024-03-22T02:38:34;9.08;82.13
64111;DHT22;50401;48.188;11.566;2024-03-22T02:40:59;9.08;82.39
64111;DHT22;50401;48.188;11.566;2024-03-22T02:43:25;9.04;82.51
64111;DHT22;50401;48.188;11.566;2024-03-22T02:45:50;8.98;82.55
64111;DHT22;50401;48.188;11.566;2024-03-22T02:48:16;8.88;82.91
64111;DHT22;50401;48.188;11.566;2024-03-22T02:50:41;8.93;82.54
64111;DHT22;50401;48.188;11.566;2024-03-22T02:53:10;9.01;82.56
64111;DHT22;50401;48.188;11.566;2024-03-22T02:55:37;8.99;82.55
64111;DHT22;50401;48.188;11.566;2024-03-22T02:58:03;9.06;82.42
64111;DHT22;50401;48.188;11.566;2024-03-22T03:00:29;8.95;82.35
64111;DHT22;50401;48.188;11.566;2024-03-22T03:02:54;8.65;83.00
64111;DHT22;50401;48.188;11.566;2024-03-22T03:05:20;8.67;83.22
64111;DHT22;50401;48.188;11.566;2024-03-22T03:07:45;8.46;84.01
64111;DHT22;50401;48.188;11.566;2024-03-22T03:10:12;8.42;84.25
64111;DHT22;50401;48.188;11.566;2024-03-22T03:12:37;8.12;85.38
64111;DHT22;50401;48.188;11.566;2024-03-22T03:15:03;7.93;86.16
64111;DHT22;50401;48.188;11.566;2024-03-22T03:17:29;7.95;86.27
64111;DHT22;50401;48.188;11.566;2024-03-22T03:19:54;7.81;86.58
64111;DHT22;50401;48.188;11.566;2024-03-22T03:22:19;7.91;86.41
64111;DHT22;50401;48.188;11.566;2024-03-22T03:24:45;7.97;86.18
64111;DHT22;50401;48.188;11.566;2024-03-22T03:27:10;7.83;86.38
64111;DHT22;50401;48.188;11.566;2024-03-22T03:29:36;7.70;86.87
64111;DHT22;50401;48.188;11.566;2024-03-22T03:32:02;7.77;86.68
64111;DHT22;50401;48.188;11.566;2024-03-22T03:34:28;7.77;86.46
64111;DHT22;50401;48.188;11.566;2024-03-22T03:36:53;7.78;86.33
64111;DHT22;50401;48.188;11.566;2024-03-22T03:39:18;7.77;86.47
64111;DHT22;50401;48.188;11.566;2024-03-22T03:41:44;7.65;86.90
64111;DHT22;50401;48.188;11.566;2024-03-22T03:44:09;7.71;86.72
64111;DHT22;50401;48.188;11.566;2024-03-22T03:46:35;7.80;86.39
64111;DHT22;50401;48.188;11.566;2024-03-22T03:49:00;7.76;86.05
64111;DHT22;50401;48.188;11.566;2024-03-22T03:51:26;7.67;86.27
64111;DHT22;50401;48.188;11.566;2024-03-22T03:53:51;7.63;86.24
64111;DHT22;50401;48.188;11.566;2024-03-22T03:56:17;7.65;86.43
64111;DHT22;50401;48.188;11.566;2024-03-22T03:58:42;7.73;86.30
64111;DHT22;50401;48.188;11.566;2024-03-22T04:01:08;7.71;85.99
64111;DHT22;50401;48.188;11.566;2024-03-22T04:03:34;7.65;86.39
64111;DHT22;50401;48.188;11.566;2024-03-22T04:06:00;7.77;85.90
64111;DHT22;50401;48.188;11.566;2024-03-22T04:08:26;7.87;85.67
64111;DHT22;50401;48.188;11.566;2024-03-22T04:10:55;7.88;85.28
64111;DHT22;50401;48.188;11.566;2024-03-22T04:13:27;7.90;85.18
64111;DHT22;50401;48.188;11.566;2024-03-22T04:15:53;7.98;84.94
64111;DHT22;50401;48.188;11.566;2024-03-22T04:18:19;7.95;84.93
64111;DHT22;50401;48.188;11.566;2024-03-22T04:20:58;7.73;85.50
64111;DHT22;50401;48.188;11.566;2024-03-22T04:23:24;7.71;85.48
64111;DHT22;50401;48.188;11.566;2024-03-22T04:28:22;7.73;85.68
64111;DHT22;50401;48.188;11.566;2024-03-22T04:31:14;7.78;85.50
64111;DHT22;50401;48.188;11.566;2024-03-22T04:33:39;7.67;85.66
64111;DHT22;50401;48.188;11.566;2024-03-22T04:36:05;7.78;85.42
64111;DHT22;50401;48.188;11.566;2024-03-22T04:38:31;7.78;85.49
64111;DHT22;50401;48.188;11.566;2024-03-22T04:40:57;7.81;85.43
64111;DHT22;50401;48.188;11.566;2024-03-22T04:43:23;7.78;85.52
64111;DHT22;50401;48.188;11.566;2024-03-22T04:45:49;7.80;85.83
64111;DHT22;50401;48.188;11.566;2024-03-22T04:48:22;7.83;85.86
64111;DHT22;50401;48.188;11.566;2024-03-22T04:50:49;7.97;85.75
64111;DHT22;50401;48.188;11.566;2024-03-22T04:53:16;8.16;85.51
64111;DHT22;50401;48.188;11.566;2024-03-22T04:55:44;8.19;85.02
64111;DHT22;50401;48.188;11.566;2024-03-22T04:58:22;8.32;84.87
64111;DHT22;50401;48.188;11.566;2024-03-22T05:00:49;8.42;84.55
64111;DHT22;50401;48.188;11.566;2024-03-22T05:03:15;8.47;84.30
64111;DHT22;50401;48.188;11.566;2024-03-22T05:05:41;8.57;84.31
64111;DHT22;50401;48.188;11.566;2024-03-22T05:08:08;8.63;84.06
64111;DHT22;50401;48.188;11.566;2024-03-22T05:10:34;8.57;84.40
64111;DHT22;50401;48.188;11.566;2024-03-22T05:13:00;8.64;84.46
64111;DHT22;50401;48.188;11.566;2024-03-22T05:15:25;8.73;84.46
64111;DHT22;50401;48.188;11.566;2024-03-22T05:17:52;8.84;84.35
64111;DHT22;50401;48.188;11.566;2024-03-22T05:20:17;8.95;84.18
64111;DHT22;50401;48.188;11.566;2024-03-22T05:22:43;9.13;83.79
64111;DHT22;50401;48.188;11.566;2024-03-22T05:25:09;9.22;83.38
64111;DHT22;50401;48.188;11.566;2024-03-22T05:27:35;9.36;83.26
64111;DHT22;50401;48.188;11.566;2024-03-22T05:30:01;9.44;82.81
64111;DHT22;50401;48.188;11.566;2024-03-22T05:32:26;9.57;82.46
64111;DHT22;50401;48.188;11.566;2024-03-22T05:34:52;9.57;82.31
64111;DHT22;50401;48.188;11.566;2024-03-22T05:37:18;9.67;82.01
64111;DHT22;50401;48.188;11.566;2024-03-22T05:39:43;9.74;81.91
64111;DHT22;50401;48.188;11.566;2024-03-22T05:42:09;9.79;81.76
64111;DHT22;50401;48.188;11.566;2024-03-22T05:44:35;9.81;81.61
64111;DHT22;50401;48.188;11.566;2024-03-22T05:47:00;9.84;81.33
64111;DHT22;50401;48.188;11.566;2024-03-22T05:49:26;9.86;81.25
64111;DHT22;50401;48.188;11.566;2024-03-22T05:51:51;9.92;81.08
64111;DHT22;50401;48.188;11.566;2024-03-22T05:54:17;9.91;81.09
64111;DHT22;50401;48.188;11.566;2024-03-22T05:56:42;9.96;81.11
64111;DHT22;50401;48.188;11.566;2024-03-22T05:59:08;10.00;80.90
64111;DHT22;50401;48.188;11.566;2024-03-22T06:01:33;10.05;80.74
64111;DHT22;50401;48.188;11.566;2024-03-22T06:03:58;10.06;80.76
64111;DHT22;50401;48.188;11.566;2024-03-22T06:06:24;10.19;80.40
64111;DHT22;50401;48.188;11.566;2024-03-22T06:08:54;10.17;80.14
64111;DHT22;50401;48.188;11.566;2024-03-22T06:11:20;10.20;80.13
64111;DHT22;50401;48.188;11.566;2024-03-22T06:13:47;10.26;79.92
64111;DHT22;50401;48.188;11.566;2024-03-22T06:16:12;10.30;79.62
64111;DHT22;50401;48.188;11.566;2024-03-22T06:18:38;10.26;79.81
64111;DHT22;50401;48.188;11.566;2024-03-22T06:21:04;10.29;79.85
64111;DHT22;50401;48.188;11.566;2024-03-22T06:23:30;10.32;79.79
64111;DHT22;50401;48.188;11.566;2024-03-22T06:25:56;10.33;79.87
64111;DHT22;50401;48.188;11.566;2024-03-22T06:28:26;10.52;79.45
64111;DHT22;50401;48.188;11.566;2024-03-22T06:30:52;10.76;78.69
64111;DHT22;50401;48.188;11.566;2024-03-22T06:33:17;11.03;78.10
64111;DHT22;50401;48.188;11.566;2024-03-22T06:35:42;11.20;77.51
64111;DHT22;50401;48.188;11.566;2024-03-22T06:38:08;11.31;77.09
64111;DHT22;50401;48.188;11.566;2024-03-22T06:40:34;11.55;76.37
64111;DHT22;50401;48.188;11.566;2024-03-22T06:43:00;11.52;76.41
64111;DHT22;50401;48.188;11.566;2024-03-22T06:45:25;11.75;75.91
64111;DHT22;50401;48.188;11.566;2024-03-22T06:47:51;11.98;75.31
64111;DHT22;50401;48.188;11.566;2024-03-22T06:50:17;12.22;74.60
64111;DHT22;50401;48.188;11.566;2024-03-22T06:52:50;12.56;73.37
64111;DHT22;50401;48.188;11.566;2024-03-22T06:55:16;12.87;72.49
64111;DHT22;50401;48.188;11.566;2024-03-22T06:57:42;13.25;71.58
64111;DHT22;50401;48.188;11.566;2024-03-22T07:00:08;13.66;70.59
64111;DHT22;50401;48.188;11.566;2024-03-22T07:02:35;13.90;69.53
64111;DHT22;50401;48.188;11.566;2024-03-22T07:05:00;14.26;68.65
64111;DHT22;50401;48.188;11.566;2024-03-22T07:07:26;14.55;67.05
64111;DHT22;50401;48.188;11.566;2024-03-22T07:09:51;14.89;66.39
64111;DHT22;50401;48.188;11.566;2024-03-22T07:12:17;15.46;64.48
64111;DHT22;50401;48.188;11.566;2024-03-22T07:14:42;16.30;62.67
64111;DHT22;50401;48.188;11.566;2024-03-22T07:17:08;17.23;60.34
64111;DHT22;50401;48.188;11.566;2024-03-22T07:19:33;18.47;56.54
64111;DHT22;50401;48.188;11.566;2024-03-22T07:22:00;19.34;53.37
64111;DHT22;50401;48.188;11.566;2024-03-22T07:24:25;21.11;50.09
64111;DHT22;50401;48.188;11.566;2024-03-22T07:26:51;20.93;50.41
64111;DHT22;50401;48.188;11.566;2024-03-22T07:29:17;19.82;51.69
64111;DHT22;50401;48.188;11.566;2024-03-22T07:31:42;18.59;54.77
64111;DHT22;50401;48.188;11.566;2024-03-22T07:34:08;17.50;56.91
64111;DHT22;50401;48.188;11.566;2024-03-22T07:36:38;16.60;58.94
64111;DHT22;50401;48.188;11.566;2024-03-22T07:39:03;16.06;61.01
64111;DHT22;50401;48.188;11.566;2024-03-22T07:41:32;15.80;61.88
64111;DHT22;50401;48.188;11.566;2024-03-22T07:43:58;15.43;63.36
64111;DHT22;50401;48.188;11.566;2024-03-22T07:46:24;15.37;63.78
64111;DHT22;50401;48.188;11.566;2024-03-22T07:48:50;15.56;63.59
64111;DHT22;50401;48.188;11.566;2024-03-22T07:51:15;15.61;63.37
64111;DHT22;50401;48.188;11.566;2024-03-22T07:53:40;15.35;63.52
64111;DHT22;50401;48.188;11.566;2024-03-22T07:56:06;15.68;63.38
64111;DHT22;50401;48.188;11.566;2024-03-22T07:58:32;16.12;62.64
64111;DHT22;50401;48.188;11.566;2024-03-22T08:00:57;16.48;61.50
64111;DHT22;50401;48.188;11.566;2024-03-22T08:03:22;16.92;60.28
64111;DHT22;50401;48.188;11.566;2024-03-22T08:05:49;17.76;58.56
64111;DHT22;50401;48.188;11.566;2024-03-22T08:08:14;18.38;55.84
64111;DHT22;50401;48.188;11.566;2024-03-22T08:10:40;19.79;53.20
64111;DHT22;50401;48.188;11.566;2024-03-22T08:13:05;21.95;48.74
64111;DHT22;50401;48.188;11.566;2024-03-22T08:15:30;23.92;45.07
64111;DHT22;50401;48.188;11.566;2024-03-22T08:17:56;24.26;43.13
64111;DHT22;50401;48.188;11.566;2024-03-22T08:20:26;25.81;39.50
64111;DHT22;50401;48.188;11.566;2024-03-22T08:22:51;26.82;38.40
64111;DHT22;50401;48.188;11.566;2024-03-22T08:25:17;28.65;36.39
64111;DHT22;50401;48.188;11.566;2024-03-22T08:27:44;29.55;34.45
64111;DHT22;50401;48.188;11.566;2024-03-22T08:30:13;30.31;33.55
64111;DHT22;50401;48.188;11.566;2024-03-22T08:32:38;30.39;32.51
64111;DHT22;50401;48.188;11.566;2024-03-22T08:35:07;30.57;32.35
64111;DHT22;50401;48.188;11.566;2024-03-22T08:37:33;28.73;34.51
64111;DHT22;50401;48.188;11.566;2024-03-22T08:40:02;29.91;33.26
64111;DHT22;50401;48.188;11.566;2024-03-22T08:42:30;30.56;32.37
64111;DHT22;50401;48.188;11.566;2024-03-22T08:44:55;30.66;32.18
64111;DHT22;50401;48.188;11.566;2024-03-22T08:47:21;30.63;31.98
64111;DHT22;50401;48.188;11.566;2024-03-22T08:49:46;30.81;31.93
64111;DHT22;50401;48.188;11.566;2024-03-22T08:52:11;31.12;31.69
64111;DHT22;50401;48.188;11.566;2024-03-22T08:54:37;31.28;31.34
64111;DHT22;50401;48.188;11.566;2024-03-22T08:57:02;31.14;31.80
64111;DHT22;50401;48.188;11.566;2024-03-22T08:59:28;30.70;32.13
64111;DHT22;50401;48.188;11.566;2024-03-22T09:01:53;31.05;32.17
64111;DHT22;50401;48.188;11.566;2024-03-22T09:04:19;30.94;31.82
64111;DHT22;50401;48.188;11.566;2024-03-22T09:06:45;30.59;32.55
64111;DHT22;50401;48.188;11.566;2024-03-22T09:09:11;29.62;34.11
64111;DHT22;50401;48.188;11.566;2024-03-22T09:11:37;28.49;35.32
64111;DHT22;50401;48.188;11.566;2024-03-22T09:14:02;27.82;36.17
64111;DHT22;50401;48.188;11.566;2024-03-22T09:16:28;27.06;36.86
64111;DHT22;50401;48.188;11.566;2024-03-22T09:18:53;26.52;37.46
64111;DHT22;50401;48.188;11.566;2024-03-22T09:21:19;25.75;38.50
64111;DHT22;50401;48.188;11.566;2024-03-22T09:23:44;25.65;38.96
64111;DHT22;50401;48.188;11.566;2024-03-22T09:26:10;24.44;40.88
64111;DHT22;50401;48.188;11.566;2024-03-22T09:28:35;24.61;40.07
64111;DHT22;50401;48.188;11.566;2024-03-22T09:31:05;24.40;40.28
64111;DHT22;50401;48.188;11.566;2024-03-22T09:33:32;24.17;40.66
64111;DHT22;50401;48.188;11.566;2024-03-22T09:35:57;23.78;41.02
64111;DHT22;50401;48.188;11.566;2024-03-22T09:38:23;23.57;41.36
64111;DHT22;50401;48.188;11.566;2024-03-22T09:40:49;23.13;42.97
64111;DHT22;50401;48.188;11.566;2024-03-22T09:43:20;23.13;43.21
64111;DHT22;50401;48.188;11.566;2024-03-22T09:45:47;23.08;43.74
64111;DHT22;50401;48.188;11.566;2024-03-22T09:48:14;22.84;42.64
64111;DHT22;50401;48.188;11.566;2024-03-22T09:50:40;22.72;43.44
64111;DHT22;50401;48.188;11.566;2024-03-22T09:53:06;22.97;43.26
64111;DHT22;50401;48.188;11.566;2024-03-22T09:55:33;22.81;43.14
64111;DHT22;50401;48.188;11.566;2024-03-22T09:58:01;22.87;43.39
64111;DHT22;50401;48.188;11.566;2024-03-22T10:00:27;22.63;43.09
64111;DHT22;50401;48.188;11.566;2024-03-22T10:02:53;22.13;44.96
64111;DHT22;50401;48.188;11.566;2024-03-22T10:05:19;22.32;44.30
64111;DHT22;50401;48.188;11.566;2024-03-22T10:07:44;21.69;45.18
64111;DHT22;50401;48.188;11.566;2024-03-22T10:10:10;21.50;45.41
64111;DHT22;50401;48.188;11.566;2024-03-22T10:12:36;21.77;45.31
64111;DHT22;50401;48.188;11.566;2024-03-22T10:15:02;21.41;46.05
64111;DHT22;50401;48.188;11.566;2024-03-22T10:17:29;21.24;46.68
64111;DHT22;50401;48.188;11.566;2024-03-22T10:19:54;21.10;47.39
64111;DHT22;50401;48.188;11.566;2024-03-22T10:22:20;20.88;47.58
64111;DHT22;50401;48.188;11.566;2024-03-22T10:24:46;20.38;48.86
64111;DHT22;50401;48.188;11.566;2024-03-22T10:27:11;20.28;48.03
64111;DHT22;50401;48.188;11.566;2024-03-22T10:29:37;20.04;48.78
64111;DHT22;50401;48.188;11.566;2024-03-22T10:32:03;19.77;50.41
64111;DHT22;50401;48.188;11.566;2024-03-22T10:34:28;19.66;50.81
64111;DHT22;50401;48.188;11.566;2024-03-22T10:36:59;19.48;51.43
64111;DHT22;50401;48.188;11.566;2024-03-22T10:39:26;19.47;51.83
64111;DHT22;50401;48.188;11.566;2024-03-22T10:41:51;19.41;51.88
64111;DHT22;50401;48.188;11.566;2024-03-22T10:44:17;19.31;52.25
64111;DHT22;50401;48.188;11.566;2024-03-22T10:46:47;19.11;52.60
64111;DHT22;50401;48.188;11.566;2024-03-22T10:49:17;19.00;52.75
64111;DHT22;50401;48.188;11.566;2024-03-22T10:51:58;18.90;52.83
64111;DHT22;50401;48.188;11.566;2024-03-22T10:54:27;18.43;53.53
64111;DHT22;50401;48.188;11.566;2024-03-22T10:56:54;18.41;53.72
64111;DHT22;50401;48.188;11.566;2024-03-22T10:59:21;18.30;53.21
64111;DHT22;50401;48.188;11.566;2024-03-22T11:01:48;18.36;53.78
64111;DHT22;50401;48.188;11.566;2024-03-22T11:04:16;18.31;53.99
64111;DHT22;50401;48.188;11.566;2024-03-22T11:06:47;18.36;54.34
64111;DHT22;50401;48.188;11.566;2024-03-22T11:09:20;18.43;54.30
64111;DHT22;50401;48.188;11.566;2024-03-22T11:11:46;18.41;54.13
64111;DHT22;50401;48.188;11.566;2024-03-22T11:14:12;18.45;53.63
64111;DHT22;50401;48.188;11.566;2024-03-22T11:16:37;18.40;54.87
64111;DHT22;50401;48.188;11.566;2024-03-22T11:19:04;18.16;55.65
64111;DHT22;50401;48.188;11.566;2024-03-22T11:21:32;18.27;55.66
64111;DHT22;50401;48.188;11.566;2024-03-22T11:24:00;18.24;55.61
64111;DHT22;50401;48.188;11.566;2024-03-22T11:26:26;18.36;55.23
64111;DHT22;50401;48.188;11.566;2024-03-22T11:28:51;18.40;55.30
64111;DHT22;50401;48.188;11.566;2024-03-22T11:31:17;18.30;55.80
64111;DHT22;50401;48.188;11.566;2024-03-22T11:33:45;18.33;55.62
64111;DHT22;50401;48.188;11.566;2024-03-22T11:36:11;18.30;55.67
64111;DHT22;50401;48.188;11.566;2024-03-22T11:38:36;18.30;55.46
64111;DHT22;50401;48.188;11.566;2024-03-22T11:41:02;18.24;55.43
64111;DHT22;50401;48.188;11.566;2024-03-22T11:43:28;18.18;54.15
64111;DHT22;50401;48.188;11.566;2024-03-22T11:45:55;18.20;55.76
64111;DHT22;50401;48.188;11.566;2024-03-22T11:48:21;18.14;55.46
64111;DHT22;50401;48.188;11.566;2024-03-22T11:50:47;18.18;55.51
64111;DHT22;50401;48.188;11.566;2024-03-22T11:53:13;18.20;54.99
64111;DHT22;50401;48.188;11.566;2024-03-22T11:55:38;18.27;54.08
64111;DHT22;50401;48.188;11.566;2024-03-22T11:58:03;18.27;54.28
64111;DHT22;50401;48.188;11.566;2024-03-22T12:00:29;18.28;55.09
64111;DHT22;50401;48.188;11.566;2024-03-22T12:02:55;18.43;55.04
64111;DHT22;50401;48.188;11.566;2024-03-22T12:05:21;18.51;54.64
64111;DHT22;50401;48.188;11.566;2024-03-22T12:07:46;18.45;54.88
64111;DHT22;50401;48.188;11.566;2024-03-22T12:10:12;18.45;54.32
64111;DHT22;50401;48.188;11.566;2024-03-22T12:12:38;18.41;54.06
64111;DHT22;50401;48.188;11.566;2024-03-22T12:15:04;18.36;54.38
64111;DHT22;50401;48.188;11.566;2024-03-22T12:17:30;18.40;54.76
64111;DHT22;50401;48.188;11.566;2024-03-22T12:19:55;18.36;55.21
64111;DHT22;50401;48.188;11.566;2024-03-22T12:22:22;18.36;54.90
64111;DHT22;50401;48.188;11.566;2024-03-22T12:24:47;18.45;54.79
64111;DHT22;50401;48.188;11.566;2024-03-22T12:27:13;18.33;54.76
64111;DHT22;50401;48.188;11.566;2024-03-22T12:29:38;18.37;55.10
64111;DHT22;50401;48.188;11.566;2024-03-22T12:32:04;18.34;54.84
64111;DHT22;50401;48.188;11.566;2024-03-22T12:34:30;18.28;55.24
64111;DHT22;50401;48.188;11.566;2024-03-22T12:36:57;18.17;55.23
64111;DHT22;50401;48.188;11.566;2024-03-22T12:39:24;18.07;55.46
64111;DHT22;50401;48.188;11.566;2024-03-22T12:41:49;18.17;55.45
64111;DHT22;50401;48.188;11.566;2024-03-22T12:44:15;18.31;55.47
64111;DHT22;50401;48.188;11.566;2024-03-22T12:46:41;18.30;55.16
64111;DHT22;50401;48.188;11.566;2024-03-22T12:49:08;18.31;55.62
64111;DHT22;50401;48.188;11.566;2024-03-22T12:51:38;18.37;54.99
64111;DHT22;50401;48.188;11.566;2024-03-22T12:54:04;18.52;55.04
64111;DHT22;50401;48.188;11.566;2024-03-22T12:56:30;18.56;55.17
64111;DHT22;50401;48.188;11.566;2024-03-22T12:58:56;18.62;54.88
64111;DHT22;50401;48.188;11.566;2024-03-22T13:01:21;18.21;55.17
64111;DHT22;50401;48.188;11.566;2024-03-22T13:03:47;18.38;55.57
64111;DHT22;50401;48.188;11.566;2024-03-22T13:06:13;18.41;56.53
64111;DHT22;50401;48.188;11.566;2024-03-22T13:08:38;18.55;55.78
64111;DHT22;50401;48.188;11.566;2024-03-22T13:11:04;18.59;55.29
64111;DHT22;50401;48.188;11.566;2024-03-22T13:13:30;18.62;54.86
64111;DHT22;50401;48.188;11.566;2024-03-22T13:15:58;18.63;55.23
64111;DHT22;50401;48.188;11.566;2024-03-22T13:18:24;18.76;55.33
64111;DHT22;50401;48.188;11.566;2024-03-22T13:20:49;18.71;54.32
64111;DHT22;50401;48.188;11.566;2024-03-22T13:23:15;18.85;54.39
64111;DHT22;50401;48.188;11.566;2024-03-22T13:25:40;18.92;53.39
64111;DHT22;50401;48.188;11.566;2024-03-22T13:28:06;18.90;53.73
64111;DHT22;50401;48.188;11.566;2024-03-22T13:30:32;18.92;53.25
64111;DHT22;50401;48.188;11.566;2024-03-22T13:32:57;18.85;53.55
64111;DHT22;50401;48.188;11.566;2024-03-22T13:35:23;18.90;53.95
64111;DHT22;50401;48.188;11.566;2024-03-22T13:37:48;18.66;54.42
64111;DHT22;50401;48.188;11.566;2024-03-22T13:40:14;18.73;53.78
64111;DHT22;50401;48.188;11.566;2024-03-22T13:42:40;18.76;53.83
64111;DHT22;50401;48.188;11.566;2024-03-22T13:45:06;18.73;54.56
64111;DHT22;50401;48.188;11.566;2024-03-22T13:47:31;18.72;54.38
64111;DHT22;50401;48.188;11.566;2024-03-22T13:49:57;18.79;54.27
64111;DHT22;50401;48.188;11.566;2024-03-22T13:52:23;18.73;53.82
64111;DHT22;50401;48.188;11.566;2024-03-22T13:54:48;18.68;54.23
64111;DHT22;50401;48.188;11.566;2024-03-22T13:57:15;18.71;54.48
64111;DHT22;50401;48.188;11.566;2024-03-22T13:59:40;18.72;54.39
64111;DHT22;50401;48.188;11.566;2024-03-22T14:02:06;18.75;54.03
64111;DHT22;50401;48.188;11.566;2024-03-22T14:04:33;18.77;53.82
64111;DHT22;50401;48.188;11.566;2024-03-22T14:06:58;18.83;53.85
64111;DHT22;50401;48.188;11.566;2024-03-22T14:09:24;18.72;53.03
64111;DHT22;50401;48.188;11.566;2024-03-22T14:11:51;18.66;53.07
64111;DHT22;50401;48.188;11.566;2024-03-22T14:14:16;18.54;53.35
64111;DHT22;50401;48.188;11.566;2024-03-22T14:16:42;18.58;53.88
64111;DHT22;50401;48.188;11.566;2024-03-22T14:19:08;18.56;54.45
64111;DHT22;50401;48.188;11.566;2024-03-22T14:21:36;18.61;54.64
64111;DHT22;50401;48.188;11.566;2024-03-22T14:24:04;18.59;53.54
64111;DHT22;50401;48.188;11.566;2024-03-22T14:26:29;18.61;53.78
64111;DHT22;50401;48.188;11.566;2024-03-22T14:28:55;18.56;53.84
64111;DHT22;50401;48.188;11.566;2024-03-22T14:31:21;18.58;53.21
64111;DHT22;50401;48.188;11.566;2024-03-22T14:33:46;18.54;52.95
64111;DHT22;50401;48.188;11.566;2024-03-22T14:36:12;18.58;52.26
64111;DHT22;50401;48.188;11.566;2024-03-22T14:38:38;18.63;51.82
64111;DHT22;50401;48.188;11.566;2024-03-22T14:41:04;18.56;52.11
64111;DHT22;50401;48.188;11.566;2024-03-22T14:43:30;18.55;51.88
64111;DHT22;50401;48.188;11.566;2024-03-22T14:46:01;18.48;52.39
64111;DHT22;50401;48.188;11.566;2024-03-22T14:48:29;18.38;53.20
64111;DHT22;50401;48.188;11.566;2024-03-22T14:50:55;18.41;53.43
64111;DHT22;50401;48.188;11.566;2024-03-22T14:53:20;18.37;53.40
64111;DHT22;50401;48.188;11.566;2024-03-22T14:55:54;18.38;54.05
64111;DHT22;50401;48.188;11.566;2024-03-22T14:58:24;18.36;54.42
64111;DHT22;50401;48.188;11.566;2024-03-22T15:01:02;18.37;54.01
64111;DHT22;50401;48.188;11.566;2024-03-22T15:03:28;18.27;54.55
64111;DHT22;50401;48.188;11.566;2024-03-22T15:05:55;18.26;55.06
64111;DHT22;50401;48.188;11.566;2024-03-22T15:08:22;18.26;54.29
64111;DHT22;50401;48.188;11.566;2024-03-22T15:10:49;18.17;54.41
64111;DHT22;50401;48.188;11.566;2024-03-22T15:13:15;18.20;55.06
64111;DHT22;50401;48.188;11.566;2024-03-22T15:15:41;18.14;55.61
64111;DHT22;50401;48.188;11.566;2024-03-22T15:18:07;18.17;55.44